sensor_id;sensor_type;location;lat;lon;timestamp;P1;durP1;ratioP1;P2;durP2;ratioP2
59856;SDS011;45733;52.668;6.860;2023-04-06T00:01:06;1.10;;;1.10;;
59856;SDS011;45733;52.668;6.860;2023-04-06T00:03:32;1.10;;;1.10;;
59856;SDS011;45733;52.668;6.860;2023-04-06T00:05:58;1.15;;;1.15;;
59856;SDS011;45733;52.668;6.860;2023-04-06T00:08:25;1.10;;;1.10;;
59856;SDS011;45733;52.668;6.860;2023-04-06T00:10:51;1.10;;;1.10;;
59856;SDS011;45733;52.668;6.860;2023-04-06T00:13:17;1.20;;;1.20;;
59856;SDS011;45733;52.668;6.860;2023-04-06T00:15:43;1.10;;;1.10;;
59856;SDS011;45733;52.668;6.860;2023-04-06T00:18:08;1.10;;;1.10;;
59856;SDS011;45733;52.668;6.860;2023-04-06T00:20:34;1.08;;;1.08;;
59856;SDS011;45733;52.668;6.860;2023-04-06T00:23:00;1.10;;;1.10;;
59856;SDS011;45733;52.668;6.860;2023-04-06T00:25:26;1.23;;;1.23;;
59856;SDS011;45733;52.668;6.860;2023-04-06T00:27:51;1.20;;;1.20;;
59856;SDS011;45733;52.668;6.860;2023-04-06T00:30:17;1.10;;;1.10;;
59856;SDS011;45733;52.668;6.860;2023-04-06T00:32:43;1.20;;;1.20;;
59856;SDS011;45733;52.668;6.860;2023-04-06T00:35:09;1.20;;;1.20;;
59856;SDS011;45733;52.668;6.860;2023-04-06T00:37:35;1.15;;;1.15;;
59856;SDS011;45733;52.668;6.860;2023-04-06T00:40:00;1.20;;;1.20;;
59856;SDS011;45733;52.668;6.860;2023-04-06T00:42:27;1.10;;;1.10;;
59856;SDS011;45733;52.668;6.860;2023-04-06T00:44:53;1.30;;;1.30;;
59856;SDS011;45733;52.668;6.860;2023-04-06T00:47:20;1.10;;;1.10;;
59856;SDS011;45733;52.668;6.860;2023-04-06T00:49:47;1.20;;;1.20;;
59856;SDS011;45733;52.668;6.860;2023-04-06T00:52:13;1.10;;;1.10;;
59856;SDS011;45733;52.668;6.860;2023-04-06T00:54:40;1.20;;;1.20;;
59856;SDS011;45733;52.668;6.860;2023-04-06T00:57:06;1.20;;;1.20;;
59856;SDS011;45733;52.668;6.860;2023-04-06T00:59:32;1.20;;;1.20;;
59856;SDS011;45733;52.668;6.860;2023-04-06T01:01:57;1.20;;;1.20;;
59856;SDS011;45733;52.668;6.860;2023-04-06T01:04:23;1.20;;;1.20;;
59856;SDS011;45733;52.668;6.860;2023-04-06T01:06:49;1.23;;;1.23;;
59856;SDS011;45733;52.668;6.860;2023-04-06T01:09:16;1.20;;;1.20;;
59856;SDS011;45733;52.668;6.860;2023-04-06T01:11:42;1.20;;;1.20;;
59856;SDS011;45733;52.668;6.860;2023-04-06T01:14:08;1.20;;;1.20;;
59856;SDS011;45733;52.668;6.860;2023-04-06T01:16:34;1.20;;;1.20;;
59856;SDS011;45733;52.668;6.860;2023-04-06T01:19:00;1.10;;;1.10;;
59856;SDS011;45733;52.668;6.860;2023-04-06T01:21:26;1.20;;;1.20;;
59856;SDS011;45733;52.668;6.860;2023-04-06T01:23:52;1.30;;;1.30;;
59856;SDS011;45733;52.668;6.860;2023-04-06T01:26:17;1.20;;;1.20;;
59856;SDS011;45733;52.668;6.860;2023-04-06T01:28:43;1.13;;;1.13;;
59856;SDS011;45733;52.668;6.860;2023-04-06T01:31:09;1.20;;;1.20;;
59856;SDS011;45733;52.668;6.860;2023-04-06T01:33:36;1.10;;;1.10;;
59856;SDS011;45733;52.668;6.860;2023-04-06T01:36:03;1.10;;;1.10;;
59856;SDS011;45733;52.668;6.860;2023-04-06T01:38:29;1.20;;;1.20;;
59856;SDS011;45733;52.668;6.860;2023-04-06T01:40:54;1.10;;;1.10;;
59856;SDS011;45733;52.668;6.860;2023-04-06T01:43:20;1.10;;;1.10;;
59856;SDS011;45733;52.668;6.860;2023-04-06T01:45:46;1.10;;;1.10;;
59856;SDS011;45733;52.668;6.860;2023-04-06T01:48:12;1.20;;;1.20;;
59856;SDS011;45733;52.668;6.860;2023-04-06T01:50:38;1.00;;;1.00;;
59856;SDS011;45733;52.668;6.860;2023-04-06T01:53:03;1.10;;;1.10;;
59856;SDS011;45733;52.668;6.860;2023-04-06T01:55:29;1.13;;;1.13;;
59856;SDS011;45733;52.668;6.860;2023-04-06T01:57:55;1.15;;;1.15;;
59856;SDS011;45733;52.668;6.860;2023-04-06T02:00:21;1.20;;;1.20;;
59856;SDS011;45733;52.668;6.860;2023-04-06T02:02:47;1.10;;;1.10;;
59856;SDS011;45733;52.668;6.860;2023-04-06T02:05:12;1.30;;;1.30;;
59856;SDS011;45733;52.668;6.860;2023-04-06T02:07:38;1.30;;;1.30;;
59856;SDS011;45733;52.668;6.860;2023-04-06T02:10:04;1.20;;;1.20;;
59856;SDS011;45733;52.668;6.860;2023-04-06T02:12:36;1.20;;;1.20;;
59856;SDS011;45733;52.668;6.860;2023-04-06T02:15:01;1.20;;;1.20;;
59856;SDS011;45733;52.668;6.860;2023-04-06T02:17:28;1.30;;;1.30;;
59856;SDS011;45733;52.668;6.860;2023-04-06T02:19:54;1.30;;;1.30;;
59856;SDS011;45733;52.668;6.860;2023-04-06T02:22:19;1.50;;;1.40;;
59856;SDS011;45733;52.668;6.860;2023-04-06T02:24:45;1.42;;;1.40;;
59856;SDS011;45733;52.668;6.860;2023-04-06T02:27:13;1.50;;;1.40;;
59856;SDS011;45733;52.668;6.860;2023-04-06T02:29:39;1.60;;;1.50;;
59856;SDS011;45733;52.668;6.860;2023-04-06T02:32:05;1.70;;;1.60;;
59856;SDS011;45733;52.668;6.860;2023-04-06T02:34:31;1.60;;;1.50;;
59856;SDS011;45733;52.668;6.860;2023-04-06T02:36:57;1.58;;;1.48;;
59856;SDS011;45733;52.668;6.860;2023-04-06T02:39:22;1.80;;;1.70;;
59856;SDS011;45733;52.668;6.860;2023-04-06T02:41:48;1.80;;;1.70;;
59856;SDS011;45733;52.668;6.860;2023-04-06T02:44:14;1.80;;;1.70;;
59856;SDS011;45733;52.668;6.860;2023-04-06T02:46:39;1.80;;;1.70;;
59856;SDS011;45733;52.668;6.860;2023-04-06T02:49:05;1.95;;;1.85;;
59856;SDS011;45733;52.668;6.860;2023-04-06T02:51:31;1.80;;;1.70;;
59856;SDS011;45733;52.668;6.860;2023-04-06T02:53:57;1.98;;;1.88;;
59856;SDS011;45733;52.668;6.860;2023-04-06T02:56:22;2.00;;;1.90;;
59856;SDS011;45733;52.668;6.860;2023-04-06T02:58:48;1.80;;;1.70;;
59856;SDS011;45733;52.668;6.860;2023-04-06T03:01:14;1.90;;;1.80;;
59856;SDS011;45733;52.668;6.860;2023-04-06T03:03:40;1.70;;;1.60;;
59856;SDS011;45733;52.668;6.860;2023-04-06T03:06:05;1.60;;;1.50;;
59856;SDS011;45733;52.668;6.860;2023-04-06T03:08:31;1.80;;;1.70;;
59856;SDS011;45733;52.668;6.860;2023-04-06T03:10:57;1.80;;;1.70;;
59856;SDS011;45733;52.668;6.860;2023-04-06T03:13:22;1.80;;;1.70;;
59856;SDS011;45733;52.668;6.860;2023-04-06T03:15:48;1.80;;;1.70;;
59856;SDS011;45733;52.668;6.860;2023-04-06T03:18:14;1.70;;;1.60;;
59856;SDS011;45733;52.668;6.860;2023-04-06T03:20:40;1.80;;;1.70;;
59856;SDS011;45733;52.668;6.860;2023-04-06T03:23:05;1.80;;;1.70;;
59856;SDS011;45733;52.668;6.860;2023-04-06T03:25:31;1.70;;;1.60;;
59856;SDS011;45733;52.668;6.860;2023-04-06T03:27:57;1.70;;;1.60;;
59856;SDS011;45733;52.668;6.860;2023-04-06T03:30:22;1.73;;;1.63;;
59856;SDS011;45733;52.668;6.860;2023-04-06T03:32:48;1.50;;;1.40;;
59856;SDS011;45733;52.668;6.860;2023-04-06T03:35:13;1.40;;;1.40;;
59856;SDS011;45733;52.668;6.860;2023-04-06T03:37:39;1.50;;;1.40;;
59856;SDS011;45733;52.668;6.860;2023-04-06T03:40:05;1.60;;;1.50;;
59856;SDS011;45733;52.668;6.860;2023-04-06T03:42:31;1.75;;;1.65;;
59856;SDS011;45733;52.668;6.860;2023-04-06T03:44:57;1.80;;;1.70;;
59856;SDS011;45733;52.668;6.860;2023-04-06T03:47:23;1.73;;;1.63;;
59856;SDS011;45733;52.668;6.860;2023-04-06T03:49:49;1.70;;;1.60;;
59856;SDS011;45733;52.668;6.860;2023-04-06T03:52:15;1.73;;;1.63;;
59856;SDS011;45733;52.668;6.860;2023-04-06T03:54:41;1.70;;;1.60;;
59856;SDS011;45733;52.668;6.860;2023-04-06T03:57:07;1.77;;;1.67;;
59856;SDS011;45733;52.668;6.860;2023-04-06T03:59:32;1.70;;;1.60;;
59856;SDS011;45733;52.668;6.860;2023-04-06T04:01:58;1.70;;;1.60;;
59856;SDS011;45733;52.668;6.860;2023-04-06T04:04:24;1.30;;;1.30;;
59856;SDS011;45733;52.668;6.860;2023-04-06T04:06:49;1.50;;;1.40;;
59856;SDS011;45733;52.668;6.860;2023-04-06T04:09:15;1.50;;;1.40;;
59856;SDS011;45733;52.668;6.860;2023-04-06T04:11:41;1.50;;;1.40;;
59856;SDS011;45733;52.668;6.860;2023-04-06T04:14:06;1.60;;;1.50;;
59856;SDS011;45733;52.668;6.860;2023-04-06T04:16:32;1.50;;;1.40;;
59856;SDS011;45733;52.668;6.860;2023-04-06T04:18:58;1.60;;;1.50;;
59856;SDS011;45733;52.668;6.860;2023-04-06T04:21:23;1.70;;;1.60;;
59856;SDS011;45733;52.668;6.860;2023-04-06T04:23:50;1.60;;;1.50;;
59856;SDS011;45733;52.668;6.860;2023-04-06T04:26:17;1.20;;;1.20;;
59856;SDS011;45733;52.668;6.860;2023-04-06T04:28:43;1.50;;;1.40;;
59856;SDS011;45733;52.668;6.860;2023-04-06T04:31:09;1.50;;;1.40;;
59856;SDS011;45733;52.668;6.860;2023-04-06T04:33:35;1.40;;;1.40;;
59856;SDS011;45733;52.668;6.860;2023-04-06T04:36:01;1.30;;;1.30;;
59856;SDS011;45733;52.668;6.860;2023-04-06T04:38:26;1.30;;;1.30;;
59856;SDS011;45733;52.668;6.860;2023-04-06T04:40:52;1.30;;;1.30;;
59856;SDS011;45733;52.668;6.860;2023-04-06T04:43:18;1.40;;;1.40;;
59856;SDS011;45733;52.668;6.860;2023-04-06T04:45:43;1.50;;;1.40;;
59856;SDS011;45733;52.668;6.860;2023-04-06T04:48:09;1.30;;;1.30;;
59856;SDS011;45733;52.668;6.860;2023-04-06T04:50:35;1.50;;;1.40;;
59856;SDS011;45733;52.668;6.860;2023-04-06T04:53:00;1.50;;;1.40;;
59856;SDS011;45733;52.668;6.860;2023-04-06T04:55:27;1.20;;;1.20;;
59856;SDS011;45733;52.668;6.860;2023-04-06T04:57:54;1.15;;;1.15;;
59856;SDS011;45733;52.668;6.860;2023-04-06T05:00:20;1.20;;;1.20;;
59856;SDS011;45733;52.668;6.860;2023-04-06T05:02:45;1.10;;;1.10;;
59856;SDS011;45733;52.668;6.860;2023-04-06T05:05:11;1.08;;;1.08;;
59856;SDS011;45733;52.668;6.860;2023-04-06T05:07:37;1.15;;;1.15;;
59856;SDS011;45733;52.668;6.860;2023-04-06T05:10:02;1.10;;;1.10;;
59856;SDS011;45733;52.668;6.860;2023-04-06T05:12:28;1.00;;;1.00;;
59856;SDS011;45733;52.668;6.860;2023-04-06T05:14:54;1.00;;;1.00;;
59856;SDS011;45733;52.668;6.860;2023-04-06T05:17:20;1.00;;;1.00;;
59856;SDS011;45733;52.668;6.860;2023-04-06T05:19:45;1.00;;;1.00;;
59856;SDS011;45733;52.668;6.860;2023-04-06T05:22:11;1.00;;;1.00;;
59856;SDS011;45733;52.668;6.860;2023-04-06T05:24:39;1.20;;;1.20;;
59856;SDS011;45733;52.668;6.860;2023-04-06T05:27:05;1.20;;;1.20;;
59856;SDS011;45733;52.668;6.860;2023-04-06T05:29:31;1.20;;;1.20;;
59856;SDS011;45733;52.668;6.860;2023-04-06T05:31:56;1.30;;;1.30;;
59856;SDS011;45733;52.668;6.860;2023-04-06T05:34:22;1.15;;;1.15;;
59856;SDS011;45733;52.668;6.860;2023-04-06T05:36:48;1.30;;;1.30;;
59856;SDS011;45733;52.668;6.860;2023-04-06T05:39:13;1.35;;;1.35;;
59856;SDS011;45733;52.668;6.860;2023-04-06T05:41:39;1.30;;;1.30;;
59856;SDS011;45733;52.668;6.860;2023-04-06T05:44:05;1.30;;;1.30;;
59856;SDS011;45733;52.668;6.860;2023-04-06T05:46:31;1.20;;;1.20;;
59856;SDS011;45733;52.668;6.860;2023-04-06T05:48:56;1.30;;;1.30;;
59856;SDS011;45733;52.668;6.860;2023-04-06T05:51:22;1.20;;;1.20;;
59856;SDS011;45733;52.668;6.860;2023-04-06T05:53:48;1.20;;;1.20;;
59856;SDS011;45733;52.668;6.860;2023-04-06T05:56:13;1.30;;;1.30;;
59856;SDS011;45733;52.668;6.860;2023-04-06T05:58:39;1.30;;;1.30;;
59856;SDS011;45733;52.668;6.860;2023-04-06T06:01:05;1.30;;;1.30;;
59856;SDS011;45733;52.668;6.860;2023-04-06T06:03:30;1.30;;;1.30;;
59856;SDS011;45733;52.668;6.860;2023-04-06T06:06:02;1.30;;;1.30;;
59856;SDS011;45733;52.668;6.860;2023-04-06T06:08:29;1.20;;;1.20;;
59856;SDS011;45733;52.668;6.860;2023-04-06T06:10:55;1.30;;;1.30;;
59856;SDS011;45733;52.668;6.860;2023-04-06T06:13:21;1.30;;;1.30;;
59856;SDS011;45733;52.668;6.860;2023-04-06T06:15:48;1.50;;;1.40;;
59856;SDS011;45733;52.668;6.860;2023-04-06T06:18:14;1.20;;;1.20;;
59856;SDS011;45733;52.668;6.860;2023-04-06T06:20:40;1.30;;;1.30;;
59856;SDS011;45733;52.668;6.860;2023-04-06T06:23:05;1.20;;;1.20;;
59856;SDS011;45733;52.668;6.860;2023-04-06T06:25:31;1.30;;;1.30;;
59856;SDS011;45733;52.668;6.860;2023-04-06T06:27:58;1.23;;;1.23;;
59856;SDS011;45733;52.668;6.860;2023-04-06T06:30:24;1.20;;;1.20;;
59856;SDS011;45733;52.668;6.860;2023-04-06T06:32:50;1.10;;;1.10;;
59856;SDS011;45733;52.668;6.860;2023-04-06T06:35:16;1.20;;;1.20;;
59856;SDS011;45733;52.668;6.860;2023-04-06T06:37:42;1.20;;;1.20;;
59856;SDS011;45733;52.668;6.860;2023-04-06T06:40:08;1.20;;;1.20;;
59856;SDS011;45733;52.668;6.860;2023-04-06T06:42:35;1.10;;;1.10;;
59856;SDS011;45733;52.668;6.860;2023-04-06T06:45:01;1.20;;;1.20;;
59856;SDS011;45733;52.668;6.860;2023-04-06T06:47:27;1.10;;;1.10;;
59856;SDS011;45733;52.668;6.860;2023-04-06T06:49:53;1.10;;;1.10;;
59856;SDS011;45733;52.668;6.860;2023-04-06T06:52:19;0.98;;;0.98;;
59856;SDS011;45733;52.668;6.860;2023-04-06T06:54:44;1.10;;;1.10;;
59856;SDS011;45733;52.668;6.860;2023-04-06T06:57:10;1.10;;;1.10;;
59856;SDS011;45733;52.668;6.860;2023-04-06T06:59:36;1.00;;;1.00;;
59856;SDS011;45733;52.668;6.860;2023-04-06T07:02:01;1.10;;;1.10;;
59856;SDS011;45733;52.668;6.860;2023-04-06T07:04:27;1.10;;;1.10;;
59856;SDS011;45733;52.668;6.860;2023-04-06T07:06:53;1.00;;;1.00;;
59856;SDS011;45733;52.668;6.860;2023-04-06T07:09:18;0.93;;;0.93;;
59856;SDS011;45733;52.668;6.860;2023-04-06T07:11:44;0.98;;;0.98;;
59856;SDS011;45733;52.668;6.860;2023-04-06T07:14:10;1.00;;;1.00;;
59856;SDS011;45733;52.668;6.860;2023-04-06T07:16:36;0.85;;;0.85;;
59856;SDS011;45733;52.668;6.860;2023-04-06T07:19:02;1.00;;;1.00;;
59856;SDS011;45733;52.668;6.860;2023-04-06T07:21:28;0.90;;;0.90;;
59856;SDS011;45733;52.668;6.860;2023-04-06T07:23:53;1.00;;;1.00;;
59856;SDS011;45733;52.668;6.860;2023-04-06T07:26:19;1.00;;;1.00;;
59856;SDS011;45733;52.668;6.860;2023-04-06T07:28:45;0.90;;;0.90;;
59856;SDS011;45733;52.668;6.860;2023-04-06T07:31:10;0.90;;;0.90;;
59856;SDS011;45733;52.668;6.860;2023-04-06T07:33:36;0.90;;;0.90;;
59856;SDS011;45733;52.668;6.860;2023-04-06T07:36:02;0.90;;;0.90;;
59856;SDS011;45733;52.668;6.860;2023-04-06T07:38:28;0.90;;;0.90;;
59856;SDS011;45733;52.668;6.860;2023-04-06T07:40:53;0.90;;;0.90;;
59856;SDS011;45733;52.668;6.860;2023-04-06T07:43:19;0.90;;;0.90;;
59856;SDS011;45733;52.668;6.860;2023-04-06T07:45:45;0.90;;;0.90;;
59856;SDS011;45733;52.668;6.860;2023-04-06T07:48:10;0.90;;;0.90;;
59856;SDS011;45733;52.668;6.860;2023-04-06T07:50:36;0.90;;;0.90;;
59856;SDS011;45733;52.668;6.860;2023-04-06T07:53:02;0.98;;;0.98;;
59856;SDS011;45733;52.668;6.860;2023-04-06T07:55:27;0.90;;;0.90;;
59856;SDS011;45733;52.668;6.860;2023-04-06T07:57:53;0.90;;;0.90;;
59856;SDS011;45733;52.668;6.860;2023-04-06T08:00:19;0.90;;;0.90;;
59856;SDS011;45733;52.668;6.860;2023-04-06T08:02:45;0.70;;;0.70;;
59856;SDS011;45733;52.668;6.860;2023-04-06T08:05:11;0.80;;;0.80;;
59856;SDS011;45733;52.668;6.860;2023-04-06T08:07:37;0.80;;;0.80;;
59856;SDS011;45733;52.668;6.860;2023-04-06T08:10:03;0.85;;;0.85;;
59856;SDS011;45733;52.668;6.860;2023-04-06T08:12:29;0.80;;;0.80;;
59856;SDS011;45733;52.668;6.860;2023-04-06T08:14:55;0.80;;;0.80;;
59856;SDS011;45733;52.668;6.860;2023-04-06T08:17:21;0.80;;;0.80;;
59856;SDS011;45733;52.668;6.860;2023-04-06T08:19:47;0.80;;;0.80;;
59856;SDS011;45733;52.668;6.860;2023-04-06T08:22:13;0.90;;;0.90;;
59856;SDS011;45733;52.668;6.860;2023-04-06T08:24:39;0.80;;;0.80;;
59856;SDS011;45733;52.668;6.860;2023-04-06T08:27:05;0.88;;;0.88;;
59856;SDS011;45733;52.668;6.860;2023-04-06T08:29:30;0.90;;;0.90;;
59856;SDS011;45733;52.668;6.860;2023-04-06T08:31:56;0.90;;;0.90;;
59856;SDS011;45733;52.668;6.860;2023-04-06T08:34:22;0.90;;;0.90;;
59856;SDS011;45733;52.668;6.860;2023-04-06T08:36:48;0.90;;;0.90;;
59856;SDS011;45733;52.668;6.860;2023-04-06T08:39:13;0.88;;;0.88;;
59856;SDS011;45733;52.668;6.860;2023-04-06T08:41:41;0.80;;;0.80;;
59856;SDS011;45733;52.668;6.860;2023-04-06T08:44:08;0.93;;;0.93;;
59856;SDS011;45733;52.668;6.860;2023-04-06T08:46:33;0.90;;;0.90;;
59856;SDS011;45733;52.668;6.860;2023-04-06T08:49:00;0.90;;;0.90;;
59856;SDS011;45733;52.668;6.860;2023-04-06T08:51:28;0.90;;;0.90;;
59856;SDS011;45733;52.668;6.860;2023-04-06T08:53:58;0.90;;;0.90;;
59856;SDS011;45733;52.668;6.860;2023-04-06T08:56:26;1.00;;;1.00;;
59856;SDS011;45733;52.668;6.860;2023-04-06T08:58:53;0.88;;;0.88;;
59856;SDS011;45733;52.668;6.860;2023-04-06T09:01:21;0.88;;;0.88;;
59856;SDS011;45733;52.668;6.860;2023-04-06T09:03:51;0.90;;;0.90;;
59856;SDS011;45733;52.668;6.860;2023-04-06T09:06:21;0.80;;;0.80;;
59856;SDS011;45733;52.668;6.860;2023-04-06T09:08:47;0.80;;;0.80;;
59856;SDS011;45733;52.668;6.860;2023-04-06T09:11:13;0.90;;;0.90;;
59856;SDS011;45733;52.668;6.860;2023-04-06T09:13:46;0.80;;;0.80;;
59856;SDS011;45733;52.668;6.860;2023-04-06T09:16:13;0.90;;;0.90;;
59856;SDS011;45733;52.668;6.860;2023-04-06T09:18:39;0.90;;;0.90;;
59856;SDS011;45733;52.668;6.860;2023-04-06T09:21:05;0.90;;;0.90;;
59856;SDS011;45733;52.668;6.860;2023-04-06T09:23:32;0.80;;;0.80;;
59856;SDS011;45733;52.668;6.860;2023-04-06T09:26:12;0.80;;;0.80;;
59856;SDS011;45733;52.668;6.860;2023-04-06T09:28:42;0.80;;;0.80;;
59856;SDS011;45733;52.668;6.860;2023-04-06T09:31:08;0.80;;;0.80;;
59856;SDS011;45733;52.668;6.860;2023-04-06T09:33:37;0.80;;;0.80;;
59856;SDS011;45733;52.668;6.860;2023-04-06T09:36:06;0.80;;;0.80;;
59856;SDS011;45733;52.668;6.860;2023-04-06T09:38:36;0.77;;;0.77;;
59856;SDS011;45733;52.668;6.860;2023-04-06T09:41:02;0.80;;;0.80;;
59856;SDS011;45733;52.668;6.860;2023-04-06T09:43:28;0.80;;;0.80;;
59856;SDS011;45733;52.668;6.860;2023-04-06T09:45:55;0.80;;;0.80;;
59856;SDS011;45733;52.668;6.860;2023-04-06T09:48:22;0.82;;;0.82;;
59856;SDS011;45733;52.668;6.860;2023-04-06T09:50:51;0.80;;;0.80;;
59856;SDS011;45733;52.668;6.860;2023-04-06T09:53:23;0.70;;;0.70;;
59856;SDS011;45733;52.668;6.860;2023-04-06T09:55:55;0.80;;;0.80;;
59856;SDS011;45733;52.668;6.860;2023-04-06T09:58:26;0.70;;;0.70;;
59856;SDS011;45733;52.668;6.860;2023-04-06T10:01:05;0.80;;;0.80;;
59856;SDS011;45733;52.668;6.860;2023-04-06T10:06:14;0.80;;;0.80;;
59856;SDS011;45733;52.668;6.860;2023-04-06T10:08:42;0.70;;;0.70;;
59856;SDS011;45733;52.668;6.860;2023-04-06T10:11:11;0.70;;;0.70;;
59856;SDS011;45733;52.668;6.860;2023-04-06T10:13:37;0.70;;;0.70;;
59856;SDS011;45733;52.668;6.860;2023-04-06T10:16:02;0.70;;;0.70;;
59856;SDS011;45733;52.668;6.860;2023-04-06T10:18:29;0.75;;;0.75;;
59856;SDS011;45733;52.668;6.860;2023-04-06T10:23:55;0.70;;;0.70;;
59856;SDS011;45733;52.668;6.860;2023-04-06T10:26:24;0.70;;;0.70;;
59856;SDS011;45733;52.668;6.860;2023-04-06T10:28:50;0.85;;;0.85;;
59856;SDS011;45733;52.668;6.860;2023-04-06T10:31:23;0.70;;;0.70;;
59856;SDS011;45733;52.668;6.860;2023-04-06T10:33:54;0.70;;;0.70;;
59856;SDS011;45733;52.668;6.860;2023-04-06T10:36:25;0.60;;;0.60;;
59856;SDS011;45733;52.668;6.860;2023-04-06T10:39:00;0.60;;;0.60;;
59856;SDS011;45733;52.668;6.860;2023-04-06T10:44:20;0.70;;;0.70;;
59856;SDS011;45733;52.668;6.860;2023-04-06T10:46:53;0.60;;;0.60;;
59856;SDS011;45733;52.668;6.860;2023-04-06T10:49:25;0.70;;;0.70;;
59856;SDS011;45733;52.668;6.860;2023-04-06T10:51:55;0.63;;;0.63;;
59856;SDS011;45733;52.668;6.860;2023-04-06T10:54:21;0.60;;;0.60;;
59856;SDS011;45733;52.668;6.860;2023-04-06T10:56:50;0.70;;;0.70;;
59856;SDS011;45733;52.668;6.860;2023-04-06T10:59:22;0.65;;;0.65;;
59856;SDS011;45733;52.668;6.860;2023-04-06T11:01:49;0.60;;;0.60;;
59856;SDS011;45733;52.668;6.860;2023-04-06T11:04:20;0.50;;;0.50;;
59856;SDS011;45733;52.668;6.860;2023-04-06T11:06:46;0.50;;;0.50;;
59856;SDS011;45733;52.668;6.860;2023-04-06T11:09:22;0.50;;;0.50;;
59856;SDS011;45733;52.668;6.860;2023-04-06T11:11:52;0.50;;;0.50;;
59856;SDS011;45733;52.668;6.860;2023-04-06T11:14:19;0.50;;;0.50;;
59856;SDS011;45733;52.668;6.860;2023-04-06T11:16:46;0.63;;;0.60;;
59856;SDS011;45733;52.668;6.860;2023-04-06T11:19:14;0.50;;;0.50;;
59856;SDS011;45733;52.668;6.860;2023-04-06T11:21:40;0.50;;;0.50;;
59856;SDS011;45733;52.668;6.860;2023-04-06T11:24:17;0.50;;;0.50;;
59856;SDS011;45733;52.668;6.860;2023-04-06T11:26:47;0.50;;;0.50;;
59856;SDS011;45733;52.668;6.860;2023-04-06T11:29:21;0.50;;;0.50;;
59856;SDS011;45733;52.668;6.860;2023-04-06T11:31:51;0.50;;;0.50;;
59856;SDS011;45733;52.668;6.860;2023-04-06T11:34:21;0.55;;;0.55;;
59856;SDS011;45733;52.668;6.860;2023-04-06T11:36:49;0.60;;;0.60;;
59856;SDS011;45733;52.668;6.860;2023-04-06T11:39:21;0.52;;;0.52;;
59856;SDS011;45733;52.668;6.860;2023-04-06T11:41:58;0.60;;;0.60;;
59856;SDS011;45733;52.668;6.860;2023-04-06T11:44:32;0.60;;;0.60;;
59856;SDS011;45733;52.668;6.860;2023-04-06T11:47:04;0.60;;;0.60;;
59856;SDS011;45733;52.668;6.860;2023-04-06T11:49:32;0.50;;;0.50;;
59856;SDS011;45733;52.668;6.860;2023-04-06T11:51:59;0.50;;;0.50;;
59856;SDS011;45733;52.668;6.860;2023-04-06T11:57:02;0.50;;;0.50;;
59856;SDS011;45733;52.668;6.860;2023-04-06T11:59:30;0.50;;;0.50;;
59856;SDS011;45733;52.668;6.860;2023-04-06T12:01:56;0.55;;;0.55;;
59856;SDS011;45733;52.668;6.860;2023-04-06T12:04:22;0.60;;;0.60;;
59856;SDS011;45733;52.668;6.860;2023-04-06T12:06:48;0.70;;;0.70;;
59856;SDS011;45733;52.668;6.860;2023-04-06T12:09:14;0.70;;;0.70;;
59856;SDS011;45733;52.668;6.860;2023-04-06T12:11:40;0.70;;;0.70;;
59856;SDS011;45733;52.668;6.860;2023-04-06T12:14:06;0.70;;;0.70;;
59856;SDS011;45733;52.668;6.860;2023-04-06T12:16:32;0.70;;;0.70;;
59856;SDS011;45733;52.668;6.860;2023-04-06T12:18:59;0.60;;;0.60;;
59856;SDS011;45733;52.668;6.860;2023-04-06T12:21:26;0.60;;;0.60;;
59856;SDS011;45733;52.668;6.860;2023-04-06T12:23:53;0.63;;;0.63;;
59856;SDS011;45733;52.668;6.860;2023-04-06T12:26:19;0.70;;;0.70;;
59856;SDS011;45733;52.668;6.860;2023-04-06T12:28:48;0.60;;;0.60;;
59856;SDS011;45733;52.668;6.860;2023-04-06T12:31:18;0.80;;;0.80;;
59856;SDS011;45733;52.668;6.860;2023-04-06T12:33:51;0.80;;;0.80;;
59856;SDS011;45733;52.668;6.860;2023-04-06T12:36:17;0.85;;;0.85;;
59856;SDS011;45733;52.668;6.860;2023-04-06T12:38:46;0.82;;;0.82;;
59856;SDS011;45733;52.668;6.860;2023-04-06T12:41:13;0.80;;;0.80;;
59856;SDS011;45733;52.668;6.860;2023-04-06T12:43:40;0.80;;;0.80;;
59856;SDS011;45733;52.668;6.860;2023-04-06T12:46:06;0.80;;;0.80;;
59856;SDS011;45733;52.668;6.860;2023-04-06T12:48:32;0.90;;;0.90;;
59856;SDS011;45733;52.668;6.860;2023-04-06T12:50:58;1.00;;;1.00;;
59856;SDS011;45733;52.668;6.860;2023-04-06T12:53:25;1.10;;;1.10;;
59856;SDS011;45733;52.668;6.860;2023-04-06T12:55:53;1.20;;;1.20;;
59856;SDS011;45733;52.668;6.860;2023-04-06T12:58:20;1.27;;;1.27;;
59856;SDS011;45733;52.668;6.860;2023-04-06T13:00:47;1.52;;;1.42;;
59856;SDS011;45733;52.668;6.860;2023-04-06T13:03:14;1.60;;;1.50;;
59856;SDS011;45733;52.668;6.860;2023-04-06T13:05:49;0.90;;;0.90;;
59856;SDS011;45733;52.668;6.860;2023-04-06T13:08:16;0.90;;;0.90;;
59856;SDS011;45733;52.668;6.860;2023-04-06T13:10:47;0.93;;;0.93;;
59856;SDS011;45733;52.668;6.860;2023-04-06T13:13:14;0.90;;;0.90;;
59856;SDS011;45733;52.668;6.860;2023-04-06T13:15:40;1.05;;;1.05;;
59856;SDS011;45733;52.668;6.860;2023-04-06T13:18:06;0.90;;;0.90;;
59856;SDS011;45733;52.668;6.860;2023-04-06T13:20:33;0.95;;;0.95;;
59856;SDS011;45733;52.668;6.860;2023-04-06T13:22:58;0.98;;;0.98;;
59856;SDS011;45733;52.668;6.860;2023-04-06T13:25:24;1.10;;;1.10;;
59856;SDS011;45733;52.668;6.860;2023-04-06T13:27:50;0.90;;;0.90;;
59856;SDS011;45733;52.668;6.860;2023-04-06T13:30:16;1.00;;;1.00;;
59856;SDS011;45733;52.668;6.860;2023-04-06T13:32:42;0.90;;;0.90;;
59856;SDS011;45733;52.668;6.860;2023-04-06T13:35:08;0.90;;;0.90;;
59856;SDS011;45733;52.668;6.860;2023-04-06T13:37:34;0.95;;;0.95;;
59856;SDS011;45733;52.668;6.860;2023-04-06T13:40:01;0.90;;;0.90;;
59856;SDS011;45733;52.668;6.860;2023-04-06T13:42:27;0.90;;;0.90;;
59856;SDS011;45733;52.668;6.860;2023-04-06T13:44:53;0.88;;;0.88;;
59856;SDS011;45733;52.668;6.860;2023-04-06T13:47:19;0.90;;;0.90;;
59856;SDS011;45733;52.668;6.860;2023-04-06T13:49:46;0.98;;;0.98;;
59856;SDS011;45733;52.668;6.860;2023-04-06T13:52:12;0.90;;;0.90;;
59856;SDS011;45733;52.668;6.860;2023-04-06T13:54:38;1.00;;;1.00;;
59856;SDS011;45733;52.668;6.860;2023-04-06T13:57:04;0.90;;;0.90;;
59856;SDS011;45733;52.668;6.860;2023-04-06T13:59:31;0.95;;;0.95;;
59856;SDS011;45733;52.668;6.860;2023-04-06T14:02:05;0.98;;;0.98;;
59856;SDS011;45733;52.668;6.860;2023-04-06T14:04:31;0.95;;;0.95;;
59856;SDS011;45733;52.668;6.860;2023-04-06T14:06:58;0.90;;;0.90;;
59856;SDS011;45733;52.668;6.860;2023-04-06T14:09:25;0.90;;;0.90;;
59856;SDS011;45733;52.668;6.860;2023-04-06T14:11:51;0.93;;;0.93;;
59856;SDS011;45733;52.668;6.860;2023-04-06T14:14:18;0.90;;;0.90;;
59856;SDS011;45733;52.668;6.860;2023-04-06T14:16:44;1.00;;;1.00;;
59856;SDS011;45733;52.668;6.860;2023-04-06T14:19:14;0.90;;;0.90;;
59856;SDS011;45733;52.668;6.860;2023-04-06T14:21:43;0.90;;;0.90;;
59856;SDS011;45733;52.668;6.860;2023-04-06T14:24:09;0.98;;;0.98;;
59856;SDS011;45733;52.668;6.860;2023-04-06T14:26:36;0.90;;;0.90;;
59856;SDS011;45733;52.668;6.860;2023-04-06T14:29:03;0.90;;;0.90;;
59856;SDS011;45733;52.668;6.860;2023-04-06T14:31:30;0.90;;;0.90;;
59856;SDS011;45733;52.668;6.860;2023-04-06T14:33:56;1.00;;;1.00;;
59856;SDS011;45733;52.668;6.860;2023-04-06T14:36:22;0.88;;;0.88;;
59856;SDS011;45733;52.668;6.860;2023-04-06T14:38:48;0.90;;;0.90;;
59856;SDS011;45733;52.668;6.860;2023-04-06T14:41:15;0.80;;;0.80;;
59856;SDS011;45733;52.668;6.860;2023-04-06T14:43:42;0.80;;;0.80;;
59856;SDS011;45733;52.668;6.860;2023-04-06T14:46:08;0.80;;;0.80;;
59856;SDS011;45733;52.668;6.860;2023-04-06T14:48:34;0.70;;;0.70;;
59856;SDS011;45733;52.668;6.860;2023-04-06T14:51:00;0.70;;;0.70;;
59856;SDS011;45733;52.668;6.860;2023-04-06T14:53:26;0.80;;;0.80;;
59856;SDS011;45733;52.668;6.860;2023-04-06T14:55:52;0.70;;;0.70;;